Time;durP1;ratioP1;P1;durP2;ratioP2;P2;SDS_P1;SDS_P2;PMS_P1;PMS_P2;Temp;Humidity;BMP_temperature;BMP_pressure;BME280_temperature;BME280_humidity;BME280_pressure;Samples;Min_cycle;Max_cycle;Signal;HPM_P1;HPM_P2
2021/12/28 00:01:51;;;;;;;;;;;-3.10;99.90;;;;;;4542901;30;19948;-79
2021/12/28 00:09:22;;;;;;;;;;;-3.20;99.90;;;;;;5150864;27;19935;-81
2021/12/28 00:11:49;;;;;;;;;;;-3.20;99.90;;;;;;5065912;28;19931;-81
2021/12/28 00:14:16;;;;;;;;;;;-3.20;99.90;;;;;;5069272;28;19932;-81
2021/12/28 00:19:27;;;;;;;;;;;-3.20;99.90;;;;;;4917306;28;19928;-80
2021/12/28 00:21:54;;;;;;;;;;;-3.20;99.90;;;;;;4734611;29;19933;-80
2021/12/28 00:24:20;;;;;;;;;;;-3.20;99.90;;;;;;4517171;30;19940;-79
2021/12/28 00:31:52;;;;;;;;;;;-3.30;99.90;;;;;;5135322;27;19930;-82
2021/12/28 00:34:19;;;;;;;;;;;-3.30;99.90;;;;;;5068209;28;19931;-80
2021/12/28 00:36:45;;;;;;;;;;;-3.40;99.90;;;;;;5048746;28;19939;-80
2021/12/28 00:39:12;;;;;;;;;;;-3.40;99.90;;;;;;5023283;28;19936;-80
2021/12/28 00:41:38;;;;;;;;;;;-3.30;99.90;;;;;;4964274;28;19930;-81
2021/12/28 00:44:05;;;;;;;;;;;-3.40;99.90;;;;;;4904052;28;19932;-82
2021/12/28 00:46:32;;;;;;;;;;;-3.40;99.90;;;;;;4726671;29;19932;-82
2021/12/28 00:54:04;;;;;;;;;;;-3.40;99.90;;;;;;5152808;27;19929;-81
2021/12/28 00:56:30;;;;;;;;;;;-3.40;99.90;;;;;;5115667;28;19928;-81
2021/12/28 00:58:57;;;;;;;;;;;-3.40;99.90;;;;;;5056364;28;20267;-81
2021/12/28 01:01:24;;;;;;;;;;;-3.50;99.90;;;;;;4996937;28;19933;-82
2021/12/28 01:03:50;;;;;;;;;;;-3.50;99.90;;;;;;4934320;28;19928;-81
2021/12/28 01:06:17;;;;;;;;;;;-3.50;99.90;;;;;;4735555;29;19943;-81
2021/12/28 01:08:43;;;;;;;;;;;-3.50;99.90;;;;;;4548783;30;19948;-80
2021/12/28 01:16:16;;;;;;;;;;;-3.60;99.90;;;;;;5160586;27;19926;-80
2021/12/28 01:18:42;;;;;;;;;;;-3.60;99.90;;;;;;5097904;27;19934;-81
2021/12/28 01:21:09;;;;;;;;;;;-3.60;99.90;;;;;;5072079;28;19955;-80
2021/12/28 01:23:36;;;;;;;;;;;-3.60;99.90;;;;;;5028561;28;19954;-80
2021/12/28 01:26:03;;;;;;;;;;;-3.60;99.90;;;;;;4944546;28;19927;-82
2021/12/28 01:28:29;;;;;;;;;;;-3.60;99.90;;;;;;4825005;29;19929;-80
2021/12/28 01:30:56;;;;;;;;;;;-3.60;99.90;;;;;;4665372;29;19940;-82
2021/12/28 01:38:28;;;;;;;;;;;-3.50;99.90;;;;;;5156108;27;19926;-82
2021/12/28 01:40:54;;;;;;;;;;;-3.60;99.90;;;;;;5095612;28;19929;-81
2021/12/28 01:43:21;;;;;;;;;;;-3.60;99.90;;;;;;5077798;28;19933;-80
2021/12/28 01:45:50;;;;;;;;;;;-3.60;99.90;;;;;;5060382;28;19933;-81
2021/12/28 01:48:18;;;;;;;;;;;-3.60;99.90;;;;;;5003402;28;19925;-80
2021/12/28 01:50:45;;;;;;;;;;;-3.70;99.90;;;;;;4900064;29;19936;-82
2021/12/28 01:53:11;;;;;;;;;;;-3.70;99.90;;;;;;4640883;30;19931;-83
2021/12/28 02:00:44;;;;;;;;;;;-3.80;99.90;;;;;;5154038;27;19930;-80
2021/12/28 02:03:11;;;;;;;;;;;-3.80;99.90;;;;;;5118195;27;19923;-83
2021/12/28 02:05:38;;;;;;;;;;;-3.80;99.90;;;;;;5072133;28;19923;-80
2021/12/28 02:08:06;;;;;;;;;;;-3.80;99.90;;;;;;5044009;28;19936;-82
2021/12/28 02:10:33;;;;;;;;;;;-3.80;99.90;;;;;;4991197;28;19932;-80
2021/12/28 02:12:59;;;;;;;;;;;-3.80;99.90;;;;;;4854087;29;19935;-81
2021/12/28 02:15:26;;;;;;;;;;;-3.80;99.90;;;;;;4538215;30;20317;-82
2021/12/28 02:22:58;;;;;;;;;;;-3.80;99.90;;;;;;5138465;27;19927;-80
2021/12/28 02:25:24;;;;;;;;;;;-3.80;99.90;;;;;;5106827;27;19927;-82
2021/12/28 02:27:51;;;;;;;;;;;-3.80;99.90;;;;;;5088181;28;19931;-80
2021/12/28 02:30:18;;;;;;;;;;;-3.80;99.90;;;;;;5073723;28;19928;-82
2021/12/28 02:32:46;;;;;;;;;;;-3.80;99.90;;;;;;4971306;28;19928;-81
2021/12/28 02:35:13;;;;;;;;;;;-3.80;99.90;;;;;;4759217;29;19939;-81
2021/12/28 02:37:40;;;;;;;;;;;-3.90;99.90;;;;;;4545983;30;19947;-81
2021/12/28 02:45:12;;;;;;;;;;;-4.00;99.90;;;;;;5151841;27;19929;-81
2021/12/28 02:47:40;;;;;;;;;;;-3.90;99.90;;;;;;5110692;27;19942;-82
2021/12/28 02:50:09;;;;;;;;;;;-4.00;99.90;;;;;;5102854;28;19931;-79
2021/12/28 02:52:37;;;;;;;;;;;-4.00;99.90;;;;;;5034445;28;19930;-79
2021/12/28 02:55:03;;;;;;;;;;;-4.00;99.90;;;;;;4975996;28;19934;-81
2021/12/28 02:57:30;;;;;;;;;;;-4.00;99.90;;;;;;4762155;29;19938;-82
2021/12/28 02:59:57;;;;;;;;;;;-4.00;99.90;;;;;;4626130;30;19934;-81
2021/12/28 03:07:30;;;;;;;;;;;-4.10;99.90;;;;;;5156911;27;19927;-82
2021/12/28 03:09:57;;;;;;;;;;;-4.10;99.90;;;;;;5089092;27;19939;-80
2021/12/28 03:12:23;;;;;;;;;;;-4.10;99.90;;;;;;5076500;28;19930;-81
2021/12/28 03:14:50;;;;;;;;;;;-4.10;99.90;;;;;;5010532;28;19937;-79
2021/12/28 03:17:17;;;;;;;;;;;-4.00;99.90;;;;;;4935370;28;19940;-79
2021/12/28 03:19:43;;;;;;;;;;;-4.00;99.90;;;;;;4855026;29;19929;-80
2021/12/28 03:22:10;;;;;;;;;;;-4.00;99.90;;;;;;4627687;29;19936;-80
2021/12/28 03:27:16;;;;;;;;;;;-4.00;99.90;;;;;;5154304;27;19930;-80
2021/12/28 03:29:42;;;;;;;;;;;-4.00;99.90;;;;;;5107494;27;19927;-81
2021/12/28 03:32:09;;;;;;;;;;;-3.90;99.90;;;;;;5100618;28;19932;-81
2021/12/28 03:34:36;;;;;;;;;;;-3.90;99.90;;;;;;5034741;28;19933;-82
2021/12/28 03:37:02;;;;;;;;;;;-3.90;99.90;;;;;;5003996;28;19938;-82
2021/12/28 03:39:29;;;;;;;;;;;-3.90;99.90;;;;;;4803774;29;19931;-82
2021/12/28 03:41:56;;;;;;;;;;;-3.90;99.90;;;;;;4603465;30;19935;-80
2021/12/28 03:49:27;;;;;;;;;;;-3.90;99.90;;;;;;5162646;27;19926;-80
2021/12/28 03:51:54;;;;;;;;;;;-3.90;99.90;;;;;;5123437;27;19924;-81
2021/12/28 03:54:21;;;;;;;;;;;-3.90;99.90;;;;;;5097289;28;19932;-82
2021/12/28 03:56:47;;;;;;;;;;;-3.90;99.90;;;;;;5026516;28;19926;-80
2021/12/28 03:59:14;;;;;;;;;;;-4.00;99.90;;;;;;4953008;28;19928;-82
2021/12/28 04:01:41;;;;;;;;;;;-4.00;99.90;;;;;;4729241;29;19938;-82
2021/12/28 04:04:07;;;;;;;;;;;-4.00;99.90;;;;;;4493519;30;19977;-82
2021/12/28 04:11:40;;;;;;;;;;;-4.00;99.90;;;;;;5144385;27;19927;-81
2021/12/28 04:14:08;;;;;;;;;;;-4.00;99.90;;;;;;5111048;28;19932;-79
2021/12/28 04:16:34;;;;;;;;;;;-4.00;99.90;;;;;;5099017;28;19932;-80
2021/12/28 04:19:04;;;;;;;;;;;-3.90;99.90;;;;;;5084934;28;19928;-81
2021/12/28 04:21:31;;;;;;;;;;;-3.90;99.90;;;;;;5024156;28;19932;-78
2021/12/28 04:23:57;;;;;;;;;;;-3.90;99.90;;;;;;4793741;29;19938;-80
2021/12/28 04:26:24;;;;;;;;;;;-3.90;99.90;;;;;;4529992;30;19936;-81
2021/12/28 04:33:22;;;;;;;;;;;-3.90;99.90;;;;;;5153645;27;19929;-80
2021/12/28 04:35:49;;;;;;;;;;;-3.90;99.90;;;;;;5101605;27;19924;-80
2021/12/28 04:38:16;;;;;;;;;;;-3.80;99.90;;;;;;5102128;28;19932;-79
2021/12/28 04:40:43;;;;;;;;;;;-3.90;99.90;;;;;;5052443;28;19925;-80
2021/12/28 04:43:11;;;;;;;;;;;-3.80;99.90;;;;;;5018132;28;19926;-79
2021/12/28 04:45:38;;;;;;;;;;;-3.80;99.90;;;;;;4829126;29;19929;-81
2021/12/28 04:48:05;;;;;;;;;;;-3.80;99.90;;;;;;4724965;29;19933;-79
2021/12/28 04:55:38;;;;;;;;;;;-3.80;99.90;;;;;;5152132;27;19930;-80
2021/12/28 04:58:05;;;;;;;;;;;-3.70;99.90;;;;;;5116226;28;19924;-81
2021/12/28 05:00:31;;;;;;;;;;;-3.70;99.90;;;;;;5070128;28;19933;-81
2021/12/28 05:02:58;;;;;;;;;;;-3.70;99.90;;;;;;5013629;28;19929;-79
2021/12/28 05:05:24;;;;;;;;;;;-3.70;99.90;;;;;;4946435;28;19927;-79
2021/12/28 05:07:51;;;;;;;;;;;-3.70;99.90;;;;;;4793142;29;19935;-81
2021/12/28 05:10:17;;;;;;;;;;;-3.70;99.90;;;;;;4552015;30;19937;-81
2021/12/28 05:17:50;;;;;;;;;;;-3.70;99.90;;;;;;5151665;27;19927;-78
2021/12/28 05:20:17;;;;;;;;;;;-3.70;99.90;;;;;;5108837;27;19946;-79
2021/12/28 05:22:43;;;;;;;;;;;-3.60;99.90;;;;;;5094449;28;20761;-81
2021/12/28 05:25:10;;;;;;;;;;;-3.60;99.90;;;;;;5081862;28;19928;-79
2021/12/28 05:27:37;;;;;;;;;;;-3.50;99.90;;;;;;5000220;28;19926;-80
2021/12/28 05:30:05;;;;;;;;;;;-3.50;99.90;;;;;;4845879;28;19940;-79
2021/12/28 05:32:32;;;;;;;;;;;-3.50;99.90;;;;;;4554776;30;19939;-80
2021/12/28 05:40:05;;;;;;;;;;;-3.40;99.90;;;;;;5153486;27;19927;-81
2021/12/28 05:42:32;;;;;;;;;;;-3.40;99.90;;;;;;5082788;28;19928;-82
2021/12/28 05:45:00;;;;;;;;;;;-3.40;99.90;;;;;;5086771;27;19931;-83
2021/12/28 05:47:26;;;;;;;;;;;-3.40;99.90;;;;;;5079091;28;19928;-80
2021/12/28 05:49:53;;;;;;;;;;;-3.30;99.90;;;;;;4969192;28;19939;-82
2021/12/28 05:52:19;;;;;;;;;;;-3.30;99.90;;;;;;4768052;29;19938;-80
2021/12/28 05:54:46;;;;;;;;;;;-3.40;99.90;;;;;;4570658;30;19934;-81
2021/12/28 06:02:17;;;;;;;;;;;-3.30;99.90;;;;;;5132316;27;19927;-80
2021/12/28 06:04:44;;;;;;;;;;;-3.30;99.90;;;;;;5082253;28;19923;-79
2021/12/28 06:07:11;;;;;;;;;;;-3.30;99.90;;;;;;5085398;28;19932;-80
2021/12/28 06:09:37;;;;;;;;;;;-3.30;99.90;;;;;;5030150;28;19926;-80
2021/12/28 06:12:06;;;;;;;;;;;-3.30;99.90;;;;;;4983981;28;19931;-79
2021/12/28 06:14:32;;;;;;;;;;;-3.20;99.90;;;;;;4836580;29;19937;-80
2021/12/28 06:16:59;;;;;;;;;;;-3.20;99.90;;;;;;4560786;30;19936;-78
2021/12/28 06:24:31;;;;;;;;;;;-3.30;99.90;;;;;;5160218;27;19926;-82
2021/12/28 06:26:57;;;;;;;;;;;-3.30;99.90;;;;;;5117061;27;20507;-81
2021/12/28 06:29:24;;;;;;;;;;;-3.20;99.90;;;;;;5079774;28;19936;-81
2021/12/28 06:31:51;;;;;;;;;;;-3.20;99.90;;;;;;5047449;28;19925;-81
2021/12/28 06:34:17;;;;;;;;;;;-3.20;99.90;;;;;;4966317;28;19934;-80
2021/12/28 06:36:44;;;;;;;;;;;-3.20;99.90;;;;;;4836607;29;19933;-78
2021/12/28 06:39:10;;;;;;;;;;;-3.20;99.90;;;;;;4655025;30;19937;-81
2021/12/28 06:46:42;;;;;;;;;;;-3.20;99.90;;;;;;5168700;27;19910;-80
2021/12/28 06:49:09;;;;;;;;;;;-3.20;99.90;;;;;;5080363;28;19924;-81
2021/12/28 06:51:36;;;;;;;;;;;-3.10;99.90;;;;;;5062005;28;19943;-81
2021/12/28 06:54:02;;;;;;;;;;;-3.10;99.90;;;;;;5064120;28;19936;-81
2021/12/28 06:56:29;;;;;;;;;;;-3.10;99.90;;;;;;5028545;28;19929;-81
2021/12/28 06:58:55;;;;;;;;;;;-3.10;99.90;;;;;;4913549;28;19929;-80
2021/12/28 07:01:22;;;;;;;;;;;-3.10;99.90;;;;;;4714052;29;19942;-80
2021/12/28 07:08:55;;;;;;;;;;;-3.10;99.90;;;;;;5153925;27;19930;-81
2021/12/28 07:11:21;;;;;;;;;;;-3.10;99.90;;;;;;5133267;27;19928;-81
2021/12/28 07:13:48;;;;;;;;;;;-3.10;99.90;;;;;;5091421;28;19931;-81
2021/12/28 07:16:15;;;;;;;;;;;-3.10;99.90;;;;;;5060280;28;19926;-81
2021/12/28 07:18:41;;;;;;;;;;;-3.00;99.90;;;;;;4964697;28;19938;-80
2021/12/28 07:21:08;;;;;;;;;;;-3.00;99.90;;;;;;4832495;29;19941;-82
2021/12/28 07:23:34;;;;;;;;;;;-3.00;99.90;;;;;;4553101;30;19935;-82
2021/12/28 07:31:06;;;;;;;;;;;-3.00;99.90;;;;;;5152440;27;19926;-81
2021/12/28 07:33:33;;;;;;;;;;;-2.90;99.90;;;;;;5103709;28;19931;-81
2021/12/28 07:35:59;;;;;;;;;;;-2.90;99.90;;;;;;5071208;28;21006;-81
2021/12/28 07:38:26;;;;;;;;;;;-2.90;99.90;;;;;;5045817;28;19932;-81
2021/12/28 07:40:52;;;;;;;;;;;-2.90;99.90;;;;;;4970352;28;19932;-81
2021/12/28 07:43:19;;;;;;;;;;;-2.80;99.90;;;;;;4781889;29;19942;-80
2021/12/28 07:45:46;;;;;;;;;;;-2.80;99.90;;;;;;4541219;30;19952;-80
2021/12/28 07:53:18;;;;;;;;;;;-2.70;99.90;;;;;;5149437;27;19926;-79
2021/12/28 07:55:45;;;;;;;;;;;-2.70;99.90;;;;;;5115823;27;19923;-81
2021/12/28 07:58:11;;;;;;;;;;;-2.70;99.90;;;;;;5098552;28;19928;-80
2021/12/28 08:00:38;;;;;;;;;;;-2.70;99.90;;;;;;5037918;28;19936;-80
2021/12/28 08:03:04;;;;;;;;;;;-2.60;99.90;;;;;;4917989;28;19928;-80
2021/12/28 08:05:31;;;;;;;;;;;-2.70;99.90;;;;;;4772040;29;19936;-80
2021/12/28 08:07:58;;;;;;;;;;;-2.60;99.90;;;;;;4522367;30;19950;-80
2021/12/28 08:15:30;;;;;;;;;;;-2.50;99.90;;;;;;5155478;27;19927;-81
2021/12/28 08:17:57;;;;;;;;;;;-2.50;99.90;;;;;;5117385;28;19928;-81
2021/12/28 08:20:23;;;;;;;;;;;-2.50;99.90;;;;;;5104255;27;19932;-80
2021/12/28 08:22:50;;;;;;;;;;;-2.40;99.90;;;;;;5094811;28;19946;-82
2021/12/28 08:25:17;;;;;;;;;;;-2.40;99.90;;;;;;5044618;28;19926;-81
2021/12/28 08:27:44;;;;;;;;;;;-2.40;99.90;;;;;;4863083;29;19937;-80
2021/12/28 08:30:11;;;;;;;;;;;-2.40;99.90;;;;;;4631088;30;19934;-80
2021/12/28 08:35:18;;;;;;;;;;;-2.30;99.90;;;;;;5149649;27;19926;-82
2021/12/28 08:37:45;;;;;;;;;;;-2.30;99.90;;;;;;5110376;28;19924;-84
2021/12/28 08:40:12;;;;;;;;;;;-2.30;99.90;;;;;;5076967;28;19939;-81
2021/12/28 08:42:39;;;;;;;;;;;-2.20;99.90;;;;;;5031978;28;19926;-80
2021/12/28 08:45:06;;;;;;;;;;;-2.10;99.90;;;;;;4918578;28;19928;-81
2021/12/28 08:47:33;;;;;;;;;;;-2.20;99.90;;;;;;4735676;29;19952;-79
2021/12/28 08:50:00;;;;;;;;;;;-2.10;99.90;;;;;;4567007;30;19941;-81
2021/12/28 08:57:31;;;;;;;;;;;-1.90;99.90;;;;;;5150456;27;19934;-82
2021/12/28 08:59:58;;;;;;;;;;;-1.90;99.90;;;;;;5120570;27;19928;-80
2021/12/28 09:02:24;;;;;;;;;;;-1.90;99.90;;;;;;5131457;27;19926;-85
2021/12/28 09:04:51;;;;;;;;;;;-1.90;99.90;;;;;;5110920;28;19916;-80
2021/12/28 09:07:18;;;;;;;;;;;-1.80;99.90;;;;;;5027322;28;19927;-80
2021/12/28 09:09:45;;;;;;;;;;;-1.80;99.90;;;;;;4859376;29;19937;-81
2021/12/28 09:12:12;;;;;;;;;;;-1.80;99.90;;;;;;4605498;29;19936;-80
2021/12/28 09:18:35;;;;;;;;;;;-1.80;99.90;;;;;;5158049;27;19926;-82
2021/12/28 09:21:02;;;;;;;;;;;-1.70;99.90;;;;;;5117737;27;19928;-82
2021/12/28 09:23:29;;;;;;;;;;;-1.70;99.90;;;;;;5075477;28;19932;-80
2021/12/28 09:25:56;;;;;;;;;;;-1.70;99.90;;;;;;5042219;28;19936;-82
2021/12/28 09:28:23;;;;;;;;;;;-1.60;99.90;;;;;;4951310;28;19934;-79
2021/12/28 09:30:49;;;;;;;;;;;-1.50;99.90;;;;;;4724326;29;19932;-82
2021/12/28 09:33:16;;;;;;;;;;;-1.50;99.90;;;;;;4532794;30;19947;-80
2021/12/28 09:40:50;;;;;;;;;;;-1.50;99.90;;;;;;5152900;27;19926;-82
2021/12/28 09:43:17;;;;;;;;;;;-1.40;99.90;;;;;;5105041;27;19972;-81
2021/12/28 09:45:44;;;;;;;;;;;-1.40;99.90;;;;;;5090116;28;19931;-80
2021/12/28 09:48:11;;;;;;;;;;;-1.50;99.90;;;;;;5045603;28;20205;-82
2021/12/28 09:50:39;;;;;;;;;;;-1.50;99.90;;;;;;4916315;28;19932;-81
2021/12/28 09:53:07;;;;;;;;;;;-1.40;99.90;;;;;;4666259;29;19943;-82
2021/12/28 09:55:34;;;;;;;;;;;-1.50;99.90;;;;;;4330588;31;19967;-81
2021/12/28 10:02:59;;;;;;;;;;;-1.50;99.90;;;;;;5144556;27;19925;-80
2021/12/28 10:05:26;;;;;;;;;;;-1.50;99.90;;;;;;5080347;27;19950;-81
2021/12/28 10:07:56;;;;;;;;;;;-1.50;99.90;;;;;;5061744;28;19948;-80
2021/12/28 10:10:23;;;;;;;;;;;-1.50;99.90;;;;;;5041867;28;19939;-81
2021/12/28 10:12:51;;;;;;;;;;;-1.40;99.90;;;;;;4972789;28;19927;-81
2021/12/28 10:15:19;;;;;;;;;;;-1.50;99.90;;;;;;4832720;29;19937;-80
2021/12/28 10:17:49;;;;;;;;;;;-1.50;99.90;;;;;;4614139;30;19938;-82
2021/12/28 10:25:26;;;;;;;;;;;-1.30;99.90;;;;;;5150031;27;19925;-81
2021/12/28 10:27:53;;;;;;;;;;;-1.30;99.90;;;;;;5078208;27;19927;-84
2021/12/28 10:30:23;;;;;;;;;;;-1.30;99.90;;;;;;5115853;27;19927;-80
2021/12/28 10:32:50;;;;;;;;;;;-1.20;99.90;;;;;;5081320;28;19929;-82
2021/12/28 10:35:18;;;;;;;;;;;-1.20;99.90;;;;;;4981308;28;19931;-80
2021/12/28 10:37:45;;;;;;;;;;;-1.10;99.90;;;;;;4789288;29;19935;-80
2021/12/28 10:40:13;;;;;;;;;;;-1.10;99.90;;;;;;4566280;30;19942;-80
2021/12/28 10:47:46;;;;;;;;;;;-0.90;99.90;;;;;;5147809;27;19930;-80
2021/12/28 10:50:35;;;;;;;;;;;-0.80;99.90;;;;;;5084024;27;19925;-80
2021/12/28 10:53:05;;;;;;;;;;;;;;;;;;5043006;28;19930;-81
2021/12/28 10:55:32;;;;;;;;;;;;;;;;;;4963157;28;19931;-80
2021/12/28 10:57:59;;;;;;;;;;;;;;;;;;4918982;28;19928;-81
2021/12/28 11:00:26;;;;;;;;;;;;;;;;;;4747802;29;19932;-81
2021/12/28 11:02:53;;;;;;;;;;;;;;;;;;4538586;30;19936;-81
2021/12/28 11:10:21;;;;;;;;;;;;;;;;;;5160091;27;19930;-81
2021/12/28 11:12:48;;;;;;;;;;;;;;;;;;5117081;27;19934;-82
2021/12/28 11:15:15;;;;;;;;;;;;;;;;;;5111224;27;19912;-80
2021/12/28 11:17:42;;;;;;;;;;;0.00;99.90;;;;;;5054012;28;19934;-81
2021/12/28 11:20:09;;;;;;;;;;;-0.10;99.90;;;;;;4994057;28;19927;-80
2021/12/28 11:22:36;;;;;;;;;;;0.00;99.90;;;;;;4762844;29;19931;-80
2021/12/28 11:25:16;;;;;;;;;;;0.00;99.90;;;;;;4464788;30;19945;-79
2021/12/28 11:32:06;;;;;;;;;;;0.10;99.90;;;;;;5137390;27;19930;-80
2021/12/28 11:34:33;;;;;;;;;;;0.10;99.90;;;;;;5083348;28;19924;-80
2021/12/28 11:37:01;;;;;;;;;;;0.10;99.90;;;;;;5073322;28;19931;-79
2021/12/28 11:39:29;;;;;;;;;;;0.20;99.90;;;;;;5045530;28;19941;-82
2021/12/28 11:41:58;;;;;;;;;;;0.20;99.90;;;;;;4925125;28;19944;-81
2021/12/28 11:44:26;;;;;;;;;;;0.20;99.90;;;;;;4759017;29;19940;-81
2021/12/28 11:46:53;;;;;;;;;;;0.20;99.90;;;;;;4481987;30;19938;-82
2021/12/28 11:54:26;;;;;;;;;;;0.30;99.90;;;;;;5175658;27;19925;-82
2021/12/28 11:56:57;;;;;;;;;;;0.30;99.90;;;;;;5115908;27;19947;-82
2021/12/28 11:59:26;;;;;;;;;;;0.30;99.90;;;;;;5103882;27;19928;-80
2021/12/28 12:02:00;;;;;;;;;;;0.40;99.90;;;;;;5095285;28;19932;-82
2021/12/28 12:04:56;;;;;;;;;;;0.40;99.90;;;;;;4964330;28;19938;-81
2021/12/28 12:07:24;;;;;;;;;;;0.40;99.90;;;;;;4738289;29;19965;-81
2021/12/28 12:15:17;;;;;;;;;;;0.40;99.90;;;;;;5154970;27;19931;-82
2021/12/28 12:17:44;;;;;;;;;;;0.50;99.90;;;;;;5082056;27;19924;-81
2021/12/28 12:20:22;;;;;;;;;;;0.50;99.90;;;;;;5083774;28;19943;-82
2021/12/28 12:22:52;;;;;;;;;;;0.50;99.90;;;;;;5014360;28;19926;-80
2021/12/28 12:25:20;;;;;;;;;;;0.60;99.90;;;;;;4917220;28;19939;-80
2021/12/28 12:27:47;;;;;;;;;;;0.60;99.90;;;;;;4720177;29;19932;-81
2021/12/28 12:30:29;;;;;;;;;;;0.70;99.90;;;;;;4443535;31;19946;-81
2021/12/28 12:37:16;;;;;;;;;;;0.70;99.90;;;;;;5150768;27;19926;-83
2021/12/28 12:39:42;;;;;;;;;;;0.70;99.90;;;;;;5089763;27;19928;-82
2021/12/28 12:42:11;;;;;;;;;;;0.80;99.90;;;;;;5100189;28;19928;-80
2021/12/28 12:44:40;;;;;;;;;;;0.80;99.90;;;;;;5064262;28;19932;-81
2021/12/28 12:47:08;;;;;;;;;;;0.80;99.90;;;;;;5057956;28;19934;-81
2021/12/28 12:49:36;;;;;;;;;;;0.80;99.90;;;;;;4905561;28;19934;-82
2021/12/28 12:52:05;;;;;;;;;;;0.80;99.90;;;;;;4658061;30;19934;-83
2021/12/28 12:59:39;;;;;;;;;;;0.90;99.90;;;;;;5161967;27;19926;-82
2021/12/28 13:02:07;;;;;;;;;;;0.90;99.90;;;;;;5107706;28;19924;-82
2021/12/28 13:04:44;;;;;;;;;;;0.90;99.90;;;;;;5079414;28;19931;-81
2021/12/28 13:07:14;;;;;;;;;;;0.90;99.90;;;;;;5055320;28;19935;-82
2021/12/28 13:09:42;;;;;;;;;;;0.90;99.90;;;;;;4979128;28;19931;-81
2021/12/28 13:12:10;;;;;;;;;;;1.00;99.90;;;;;;4780080;29;19936;-81
2021/12/28 13:14:36;;;;;;;;;;;1.00;99.90;;;;;;4463457;31;19945;-82
2021/12/28 13:21:36;;;;;;;;;;;1.00;99.90;;;;;;5151437;27;19931;-81
2021/12/28 13:24:06;;;;;;;;;;;1.10;99.90;;;;;;5108828;28;19929;-81
2021/12/28 13:26:41;;;;;;;;;;;1.10;99.90;;;;;;5079704;28;19929;-82
2021/12/28 13:29:08;;;;;;;;;;;1.10;99.90;;;;;;5032747;28;19926;-82
2021/12/28 13:31:35;;;;;;;;;;;1.10;99.90;;;;;;4858150;29;19930;-80
2021/12/28 13:34:02;;;;;;;;;;;1.20;99.90;;;;;;4739380;29;19931;-79
2021/12/28 13:36:29;;;;;;;;;;;1.30;99.90;;;;;;4541876;30;19948;-82
2021/12/28 13:44:03;;;;;;;;;;;1.30;99.90;;;;;;5172426;27;19930;-80
2021/12/28 13:46:29;;;;;;;;;;;1.30;99.90;;;;;;5140208;27;19924;-81
2021/12/28 13:48:59;;;;;;;;;;;1.40;99.90;;;;;;5098165;28;19935;-80
2021/12/28 13:51:26;;;;;;;;;;;1.50;99.90;;;;;;5039790;28;20034;-80
2021/12/28 13:53:56;;;;;;;;;;;1.40;99.90;;;;;;4901153;28;19932;-79
2021/12/28 13:56:23;;;;;;;;;;;1.50;99.90;;;;;;4801557;29;19934;-80
2021/12/28 13:58:50;;;;;;;;;;;1.50;99.90;;;;;;4545690;30;19938;-80
2021/12/28 14:06:24;;;;;;;;;;;1.60;99.90;;;;;;5158030;27;19930;-80
2021/12/28 14:08:51;;;;;;;;;;;1.60;99.90;;;;;;5107817;27;19931;-82
2021/12/28 14:11:29;;;;;;;;;;;1.60;99.90;;;;;;5083756;28;19924;-80
2021/12/28 14:13:56;;;;;;;;;;;1.70;99.90;;;;;;5027857;28;19937;-79
2021/12/28 14:16:22;;;;;;;;;;;1.70;99.90;;;;;;4853607;29;19965;-81
2021/12/28 14:18:50;;;;;;;;;;;1.70;99.90;;;;;;4638490;30;19945;-80
2021/12/28 14:21:20;;;;;;;;;;;1.70;99.90;;;;;;4378269;31;19947;-80
2021/12/28 14:28:56;;;;;;;;;;;1.70;99.90;;;;;;5130702;27;19930;-82
2021/12/28 14:31:27;;;;;;;;;;;1.80;99.90;;;;;;5054157;28;19936;-82
2021/12/28 14:33:55;;;;;;;;;;;1.80;99.90;;;;;;5043449;28;19941;-83
2021/12/28 14:36:28;;;;;;;;;;;1.80;99.90;;;;;;4976325;28;19937;-82
2021/12/28 14:39:05;;;;;;;;;;;1.80;99.90;;;;;;4870736;29;19936;-80
2021/12/28 14:41:32;;;;;;;;;;;1.90;99.90;;;;;;4650744;30;19933;-80
2021/12/28 14:44:06;;;;;;;;;;;1.80;99.90;;;;;;4437652;31;19939;-81
2021/12/28 14:51:38;;;;;;;;;;;1.80;99.90;;;;;;5149690;27;19926;-83
2021/12/28 14:54:08;;;;;;;;;;;1.80;99.90;;;;;;5076444;28;19925;-81
2021/12/28 14:56:35;;;;;;;;;;;1.80;99.90;;;;;;5039767;28;19933;-84
2021/12/28 14:59:09;;;;;;;;;;;1.90;99.90;;;;;;5031074;28;19933;-84
2021/12/28 15:01:36;;;;;;;;;;;1.90;99.90;;;;;;4912665;29;19929;-81
2021/12/28 15:04:03;;;;;;;;;;;1.90;99.90;;;;;;4762283;29;19938;-82
2021/12/28 15:06:30;;;;;;;;;;;1.90;99.90;;;;;;4551361;30;19944;-80
2021/12/28 15:14:02;;;;;;;;;;;1.90;99.90;;;;;;5175318;27;19941;-82
2021/12/28 15:16:31;;;;;;;;;;;1.90;99.90;;;;;;5117345;28;19924;-81
2021/12/28 15:18:58;;;;;;;;;;;1.80;99.90;;;;;;5072301;28;19932;-82
2021/12/28 15:21:25;;;;;;;;;;;1.90;99.90;;;;;;5094163;28;19933;-81
2021/12/28 15:23:52;;;;;;;;;;;1.80;99.90;;;;;;5020830;28;19926;-81
2021/12/28 15:26:19;;;;;;;;;;;1.80;99.90;;;;;;4854724;28;19931;-82
2021/12/28 15:28:48;;;;;;;;;;;1.80;99.90;;;;;;4565156;30;19934;-81
2021/12/28 15:36:20;;;;;;;;;;;1.70;99.90;;;;;;5174700;27;19925;-80
2021/12/28 15:38:46;;;;;;;;;;;1.60;99.90;;;;;;5141041;27;19923;-80
2021/12/28 15:41:13;;;;;;;;;;;1.60;99.90;;;;;;5112447;27;20135;-80
2021/12/28 15:43:41;;;;;;;;;;;1.60;99.90;;;;;;5086839;28;19931;-80
2021/12/28 15:46:09;;;;;;;;;;;1.60;99.90;;;;;;5042167;28;19925;-80
2021/12/28 15:48:36;;;;;;;;;;;1.50;99.90;;;;;;4845712;29;19931;-80
2021/12/28 15:51:03;;;;;;;;;;;1.50;99.90;;;;;;4565539;30;19935;-81
2021/12/28 15:58:32;;;;;;;;;;;1.60;99.90;;;;;;5197612;27;19909;-84
2021/12/28 16:00:59;;;;;;;;;;;1.60;99.90;;;;;;5140929;27;19910;-84
2021/12/28 16:03:25;;;;;;;;;;;1.60;99.90;;;;;;5140898;27;19919;-84
2021/12/28 16:05:52;;;;;;;;;;;1.60;99.90;;;;;;5110985;27;19925;-85
2021/12/28 16:08:18;;;;;;;;;;;1.50;99.90;;;;;;4972940;28;19934;-85
2021/12/28 16:10:45;;;;;;;;;;;1.60;99.90;;;;;;4799177;29;19932;-85
2021/12/28 16:13:12;;;;;;;;;;;1.60;99.90;;;;;;4524850;30;19938;-83
2021/12/28 16:20:43;;;;;;;;;;;1.60;99.90;;;;;;5172936;27;19941;-82
2021/12/28 16:23:10;;;;;;;;;;;1.60;99.90;;;;;;5134075;27;19935;-81
2021/12/28 16:25:37;;;;;;;;;;;1.60;99.90;;;;;;5109703;28;19932;-85
2021/12/28 16:28:04;;;;;;;;;;;1.60;99.90;;;;;;5052532;28;19925;-81
2021/12/28 16:30:31;;;;;;;;;;;1.60;99.90;;;;;;4968204;28;19934;-81
2021/12/28 16:32:58;;;;;;;;;;;1.60;99.90;;;;;;4814037;29;19931;-80
2021/12/28 16:35:25;;;;;;;;;;;1.60;99.90;;;;;;4552084;30;19937;-81
2021/12/28 16:42:10;;;;;;;;;;;1.60;99.90;;;;;;5186901;27;19925;-83
2021/12/28 16:44:37;;;;;;;;;;;1.60;99.90;;;;;;5137481;27;19923;-84
2021/12/28 16:47:04;;;;;;;;;;;1.60;99.90;;;;;;5136930;27;19954;-80
2021/12/28 16:49:31;;;;;;;;;;;1.60;99.90;;;;;;5147712;27;19923;-83
2021/12/28 16:51:57;;;;;;;;;;;1.60;99.90;;;;;;5045533;28;19926;-80
2021/12/28 16:54:24;;;;;;;;;;;1.60;99.90;;;;;;4914967;28;19929;-79
2021/12/28 16:56:50;;;;;;;;;;;1.70;99.90;;;;;;4647831;29;19934;-81
2021/12/28 17:04:08;;;;;;;;;;;1.70;99.90;;;;;;5173749;27;19925;-80
2021/12/28 17:06:34;;;;;;;;;;;1.70;99.90;;;;;;5137123;27;19923;-80
2021/12/28 17:09:01;;;;;;;;;;;1.70;99.90;;;;;;5115869;27;19939;-82
2021/12/28 17:11:28;;;;;;;;;;;1.70;99.90;;;;;;5108651;28;19924;-80
2021/12/28 17:13:56;;;;;;;;;;;1.70;99.90;;;;;;5055389;28;19926;-82
2021/12/28 17:16:24;;;;;;;;;;;1.70;99.90;;;;;;4794938;29;19930;-81
2021/12/28 17:18:51;;;;;;;;;;;1.70;99.90;;;;;;4555309;30;19937;-82
2021/12/28 17:26:23;;;;;;;;;;;1.70;99.90;;;;;;5172862;27;19925;-83
2021/12/28 17:28:50;;;;;;;;;;;1.80;99.90;;;;;;5113595;27;19924;-80
2021/12/28 17:31:17;;;;;;;;;;;1.80;99.90;;;;;;5103795;28;19939;-83
2021/12/28 17:33:44;;;;;;;;;;;1.70;99.90;;;;;;5027468;28;19948;-81
2021/12/28 17:36:10;;;;;;;;;;;1.70;99.90;;;;;;4950896;28;19927;-82
2021/12/28 17:38:37;;;;;;;;;;;1.80;99.90;;;;;;4788539;29;19938;-80
2021/12/28 17:41:04;;;;;;;;;;;1.80;99.90;;;;;;4680316;30;19933;-80
2021/12/28 17:46:20;;;;;;;;;;;1.80;99.90;;;;;;5181703;27;19925;-80
2021/12/28 17:48:47;;;;;;;;;;;1.80;99.90;;;;;;5138908;27;19930;-81
2021/12/28 17:51:15;;;;;;;;;;;1.80;99.90;;;;;;5108015;28;19928;-85
2021/12/28 17:53:41;;;;;;;;;;;1.80;99.90;;;;;;5066681;28;19924;-82
2021/12/28 17:56:09;;;;;;;;;;;1.80;99.90;;;;;;5026106;28;19933;-82
2021/12/28 17:58:36;;;;;;;;;;;1.90;99.90;;;;;;4874322;28;19929;-82
2021/12/28 18:01:03;;;;;;;;;;;1.90;99.90;;;;;;4639851;30;19934;-81
2021/12/28 18:08:36;;;;;;;;;;;1.80;99.90;;;;;;5173154;27;19926;-82
2021/12/28 18:11:03;;;;;;;;;;;1.80;99.90;;;;;;5118810;27;19931;-78
2021/12/28 18:13:31;;;;;;;;;;;1.80;99.90;;;;;;5124209;27;19938;-79
2021/12/28 18:15:58;;;;;;;;;;;1.80;99.90;;;;;;5122733;27;19927;-80
2021/12/28 18:18:26;;;;;;;;;;;1.80;99.90;;;;;;5040928;28;19930;-79
2021/12/28 18:20:53;;;;;;;;;;;1.70;99.90;;;;;;4834809;29;19932;-82
2021/12/28 18:23:20;;;;;;;;;;;1.70;99.90;;;;;;4537891;30;19943;-81
2021/12/28 18:30:52;;;;;;;;;;;1.80;99.90;;;;;;5171711;27;19926;-82
2021/12/28 18:33:19;;;;;;;;;;;1.80;99.90;;;;;;5116576;27;19924;-82
2021/12/28 18:35:48;;;;;;;;;;;1.80;99.90;;;;;;5115222;27;19957;-82
2021/12/28 18:38:17;;;;;;;;;;;1.80;99.90;;;;;;5102853;28;19939;-83